Aeroporto :
LOGIN :

Iscrizione | Disclaimer

   EN    FR    IT 

 










Sommario :    VFR   VFR Marginale   IFR   IFR Intensivo   IFR Molto Intensivo
Visibilità : 
Base nubi : 
>= 8 km
>= 3000ft
5 / 8 km
1000 / 3000 ft
1500m / 5 km
500 / 1000 ft
800 / 1500m
200 / 500 ft
< 800m
< 200 ft
Simboli :   Temporali  Nebbia  Neve Forte  Precipitazioni Forti  Vento > 20 kt
SIGMETs :   Varie  Temporali  Ghiacco  Turbolenza  Onda orograficha  Ceneri Vulcaniche







- Altitudine del aeroporto : 13 ft
- Codice IATA : GOA


LIMJ - Genoa Cristoforo Colombo

ULTIMO METAR :
  • 240350Z 03011KT 340V060 CAVOK 09/M06 Q1034

METARs OBSOLETI :
  • 240320Z 03012KT 350V060 CAVOK 09/M07 Q1034
  • 240250Z 03016KT CAVOK 09/M12 Q1034
  • 240220Z 04017G27KT CAVOK 09/M12 Q1033
  • 240150Z 04016KT CAVOK 08/M14 Q1034
  • 240120Z 04016KT CAVOK 08/M14 Q1034

TAF TAF LIMJ
Valido dal 24 a 00 ore il 25 a 00 ore UTC


232300Z 2400/2424 01012KT CAVOK
TEMPO 2400/2424 01015G25KT
Nessun NOTAM noto per questo aeroporto.
1 SIGMET conosciuto per la FIR Milano (LIMM) :
 
Turbolenza severa
LIMM SIGMET 1 VALID 240130/240530 LIIP
LIMM MILANO FIR SEV TURB FCST SE OF LINE N4640 E01349 - N4333 E00742 FL200/370 MOV SE NC=



MetMap, La meteo Aeronautica in un colpo d'occhio ! - Copyright ORBIFLY Dicembre 2007 - Disclaimer

ORBIFLY MET'MAP TEAM :

Programmazione e sviluppo : Alexandra Zaïnal
Concezione e sviluppo : Baudouin d'Aumeries
Co-Programmazione e sviluppo : Marc-Olivier Méhu
Supporto tecnico e logistico : Manuel Goepfert
Aiuto per la traduzione : Arnaldo La Scala

Contatto : metmap@orbifly.com




FONTI E CREDITI :

   NOAA